sensor_id;sensor_type;location;lat;lon;timestamp;temperature;humidity
24638;DHT22;12773;50.162;8.548;2023-02-15T00:02:48;4.60;99.90
24638;DHT22;12773;50.162;8.548;2023-02-15T00:05:35;4.50;99.90
24638;DHT22;12773;50.162;8.548;2023-02-15T00:08:23;4.60;99.90
24638;DHT22;12773;50.162;8.548;2023-02-15T00:11:13;4.60;99.90
24638;DHT22;12773;50.162;8.548;2023-02-15T00:14:02;4.70;99.90
24638;DHT22;12773;50.162;8.548;2023-02-15T00:16:51;4.80;99.90
24638;DHT22;12773;50.162;8.548;2023-02-15T00:19:39;4.90;99.90
24638;DHT22;12773;50.162;8.548;2023-02-15T00:22:27;4.90;99.90
24638;DHT22;12773;50.162;8.548;2023-02-15T00:25:14;5.00;99.90
24638;DHT22;12773;50.162;8.548;2023-02-15T00:28:01;5.00;99.90
24638;DHT22;12773;50.162;8.548;2023-02-15T00:30:48;4.90;99.90
24638;DHT22;12773;50.162;8.548;2023-02-15T00:33:37;4.90;99.90
24638;DHT22;12773;50.162;8.548;2023-02-15T00:36:24;4.70;99.90
24638;DHT22;12773;50.162;8.548;2023-02-15T00:39:12;4.70;99.90
24638;DHT22;12773;50.162;8.548;2023-02-15T00:41:59;4.80;99.90
24638;DHT22;12773;50.162;8.548;2023-02-15T00:44:47;4.90;99.90
24638;DHT22;12773;50.162;8.548;2023-02-15T00:47:34;4.80;99.90
24638;DHT22;12773;50.162;8.548;2023-02-15T00:50:22;4.90;99.90
24638;DHT22;12773;50.162;8.548;2023-02-15T00:53:09;4.90;99.90
24638;DHT22;12773;50.162;8.548;2023-02-15T00:55:57;4.90;99.90
24638;DHT22;12773;50.162;8.548;2023-02-15T00:58:45;4.90;99.90
24638;DHT22;12773;50.162;8.548;2023-02-15T01:01:33;4.90;99.90
24638;DHT22;12773;50.162;8.548;2023-02-15T01:04:20;4.90;99.90
24638;DHT22;12773;50.162;8.548;2023-02-15T01:07:08;4.90;99.90
24638;DHT22;12773;50.162;8.548;2023-02-15T01:09:55;4.80;99.90
24638;DHT22;12773;50.162;8.548;2023-02-15T01:12:43;4.90;99.90
24638;DHT22;12773;50.162;8.548;2023-02-15T01:15:30;4.90;99.90
24638;DHT22;12773;50.162;8.548;2023-02-15T01:18:17;4.90;99.90
24638;DHT22;12773;50.162;8.548;2023-02-15T01:21:14;4.90;99.90
24638;DHT22;12773;50.162;8.548;2023-02-15T01:24:02;4.90;99.90
24638;DHT22;12773;50.162;8.548;2023-02-15T01:26:49;4.80;99.90
24638;DHT22;12773;50.162;8.548;2023-02-15T01:29:36;4.70;99.90
24638;DHT22;12773;50.162;8.548;2023-02-15T01:32:24;4.70;99.90
24638;DHT22;12773;50.162;8.548;2023-02-15T01:35:13;4.80;99.90
24638;DHT22;12773;50.162;8.548;2023-02-15T01:38:00;4.80;99.90
24638;DHT22;12773;50.162;8.548;2023-02-15T01:40:52;4.70;99.90
24638;DHT22;12773;50.162;8.548;2023-02-15T01:44:00;4.60;99.90
24638;DHT22;12773;50.162;8.548;2023-02-15T01:46:50;4.70;99.90
24638;DHT22;12773;50.162;8.548;2023-02-15T01:49:39;4.60;99.90
24638;DHT22;12773;50.162;8.548;2023-02-15T01:52:30;4.60;99.90
24638;DHT22;12773;50.162;8.548;2023-02-15T01:55:17;4.70;99.90
24638;DHT22;12773;50.162;8.548;2023-02-15T01:58:06;4.80;99.90
24638;DHT22;12773;50.162;8.548;2023-02-15T02:00:55;4.80;99.90
24638;DHT22;12773;50.162;8.548;2023-02-15T02:04:09;4.90;99.90
24638;DHT22;12773;50.162;8.548;2023-02-15T02:06:54;4.90;99.90
24638;DHT22;12773;50.162;8.548;2023-02-15T02:09:41;5.00;99.90
24638;DHT22;12773;50.162;8.548;2023-02-15T02:12:30;5.00;99.90
24638;DHT22;12773;50.162;8.548;2023-02-15T02:15:18;5.00;99.90
24638;DHT22;12773;50.162;8.548;2023-02-15T02:18:31;5.10;99.90
24638;DHT22;12773;50.162;8.548;2023-02-15T02:21:29;5.00;99.90
24638;DHT22;12773;50.162;8.548;2023-02-15T02:24:40;5.10;99.90
24638;DHT22;12773;50.162;8.548;2023-02-15T02:27:35;5.00;99.90
24638;DHT22;12773;50.162;8.548;2023-02-15T02:30:46;4.90;99.90
24638;DHT22;12773;50.162;8.548;2023-02-15T02:36:56;4.90;99.90
24638;DHT22;12773;50.162;8.548;2023-02-15T02:39:49;4.60;99.90
24638;DHT22;12773;50.162;8.548;2023-02-15T02:42:44;4.60;99.90
24638;DHT22;12773;50.162;8.548;2023-02-15T02:45:40;4.60;99.90
24638;DHT22;12773;50.162;8.548;2023-02-15T02:48:32;4.50;99.90
24638;DHT22;12773;50.162;8.548;2023-02-15T02:51:20;4.50;99.90
24638;DHT22;12773;50.162;8.548;2023-02-15T02:54:08;4.60;99.90
24638;DHT22;12773;50.162;8.548;2023-02-15T02:56:57;4.70;99.90
24638;DHT22;12773;50.162;8.548;2023-02-15T02:59:46;4.70;99.90
24638;DHT22;12773;50.162;8.548;2023-02-15T03:02:40;4.80;99.90
24638;DHT22;12773;50.162;8.548;2023-02-15T03:05:29;4.80;99.90
24638;DHT22;12773;50.162;8.548;2023-02-15T03:08:19;4.80;99.90
24638;DHT22;12773;50.162;8.548;2023-02-15T03:11:11;4.80;99.90
24638;DHT22;12773;50.162;8.548;2023-02-15T03:13:59;4.90;99.90
24638;DHT22;12773;50.162;8.548;2023-02-15T03:16:47;4.90;99.90
24638;DHT22;12773;50.162;8.548;2023-02-15T03:19:38;4.80;99.90
24638;DHT22;12773;50.162;8.548;2023-02-15T03:22:35;4.80;99.90
24638;DHT22;12773;50.162;8.548;2023-02-15T03:25:31;4.90;99.90
24638;DHT22;12773;50.162;8.548;2023-02-15T03:28:31;4.80;99.90
24638;DHT22;12773;50.162;8.548;2023-02-15T03:31:15;4.80;99.90
24638;DHT22;12773;50.162;8.548;2023-02-15T03:34:06;4.80;99.90
24638;DHT22;12773;50.162;8.548;2023-02-15T03:37:11;4.80;99.90
24638;DHT22;12773;50.162;8.548;2023-02-15T03:40:23;4.70;99.90
24638;DHT22;12773;50.162;8.548;2023-02-15T03:43:44;4.70;99.90
24638;DHT22;12773;50.162;8.548;2023-02-15T03:46:49;4.70;99.90
24638;DHT22;12773;50.162;8.548;2023-02-15T03:50:14;4.70;99.90
24638;DHT22;12773;50.162;8.548;2023-02-15T03:53:21;4.70;99.90
24638;DHT22;12773;50.162;8.548;2023-02-15T03:56:09;4.80;99.90
24638;DHT22;12773;50.162;8.548;2023-02-15T03:58:56;4.80;99.90
24638;DHT22;12773;50.162;8.548;2023-02-15T04:02:20;4.90;99.90
24638;DHT22;12773;50.162;8.548;2023-02-15T04:05:08;5.00;99.90
24638;DHT22;12773;50.162;8.548;2023-02-15T04:07:55;4.90;99.90
24638;DHT22;12773;50.162;8.548;2023-02-15T04:10:43;4.80;99.90
24638;DHT22;12773;50.162;8.548;2023-02-15T04:13:39;4.80;99.90
24638;DHT22;12773;50.162;8.548;2023-02-15T04:16:28;4.90;99.90
24638;DHT22;12773;50.162;8.548;2023-02-15T04:19:16;4.80;99.90
24638;DHT22;12773;50.162;8.548;2023-02-15T04:22:21;4.80;99.90
24638;DHT22;12773;50.162;8.548;2023-02-15T04:25:27;4.90;99.90
24638;DHT22;12773;50.162;8.548;2023-02-15T04:28:14;4.90;99.90
24638;DHT22;12773;50.162;8.548;2023-02-15T04:31:01;4.90;99.90
24638;DHT22;12773;50.162;8.548;2023-02-15T04:33:49;4.80;99.90
24638;DHT22;12773;50.162;8.548;2023-02-15T04:36:37;4.90;99.90
24638;DHT22;12773;50.162;8.548;2023-02-15T04:39:25;4.90;99.90
24638;DHT22;12773;50.162;8.548;2023-02-15T04:42:12;4.90;99.90
24638;DHT22;12773;50.162;8.548;2023-02-15T04:44:59;4.90;99.90
24638;DHT22;12773;50.162;8.548;2023-02-15T04:47:47;4.90;99.90
24638;DHT22;12773;50.162;8.548;2023-02-15T04:50:34;4.90;99.90
24638;DHT22;12773;50.162;8.548;2023-02-15T04:53:22;5.00;99.90
24638;DHT22;12773;50.162;8.548;2023-02-15T04:56:09;5.00;99.90
24638;DHT22;12773;50.162;8.548;2023-02-15T04:58:57;5.00;99.90
24638;DHT22;12773;50.162;8.548;2023-02-15T05:01:44;4.90;99.90
24638;DHT22;12773;50.162;8.548;2023-02-15T05:04:31;4.90;99.90
24638;DHT22;12773;50.162;8.548;2023-02-15T05:07:18;4.90;99.90
24638;DHT22;12773;50.162;8.548;2023-02-15T05:10:07;4.90;99.90
24638;DHT22;12773;50.162;8.548;2023-02-15T05:12:54;5.00;99.90
24638;DHT22;12773;50.162;8.548;2023-02-15T05:15:41;5.00;99.90
24638;DHT22;12773;50.162;8.548;2023-02-15T05:18:30;5.00;99.90
24638;DHT22;12773;50.162;8.548;2023-02-15T05:21:17;4.90;99.90
24638;DHT22;12773;50.162;8.548;2023-02-15T05:24:04;4.80;99.90
24638;DHT22;12773;50.162;8.548;2023-02-15T05:26:53;4.70;99.90
24638;DHT22;12773;50.162;8.548;2023-02-15T05:29:58;4.80;99.90
24638;DHT22;12773;50.162;8.548;2023-02-15T05:32:46;4.80;99.90
24638;DHT22;12773;50.162;8.548;2023-02-15T05:35:34;4.80;99.90
24638;DHT22;12773;50.162;8.548;2023-02-15T05:38:22;4.70;99.90
24638;DHT22;12773;50.162;8.548;2023-02-15T05:41:10;4.70;99.90
24638;DHT22;12773;50.162;8.548;2023-02-15T05:43:57;4.80;99.90
24638;DHT22;12773;50.162;8.548;2023-02-15T05:46:45;4.90;99.90
24638;DHT22;12773;50.162;8.548;2023-02-15T05:49:32;4.80;99.90
24638;DHT22;12773;50.162;8.548;2023-02-15T05:52:20;4.70;99.90
24638;DHT22;12773;50.162;8.548;2023-02-15T05:55:08;4.70;99.90
24638;DHT22;12773;50.162;8.548;2023-02-15T05:57:55;4.60;99.90
24638;DHT22;12773;50.162;8.548;2023-02-15T06:00:42;4.50;99.90
24638;DHT22;12773;50.162;8.548;2023-02-15T06:03:30;4.40;99.90
24638;DHT22;12773;50.162;8.548;2023-02-15T06:06:17;4.30;99.90
24638;DHT22;12773;50.162;8.548;2023-02-15T06:09:05;4.30;99.90
24638;DHT22;12773;50.162;8.548;2023-02-15T06:11:52;4.30;99.90
24638;DHT22;12773;50.162;8.548;2023-02-15T06:14:39;4.40;99.90
24638;DHT22;12773;50.162;8.548;2023-02-15T06:17:27;4.50;99.90
24638;DHT22;12773;50.162;8.548;2023-02-15T06:20:14;4.60;99.90
24638;DHT22;12773;50.162;8.548;2023-02-15T06:23:01;4.60;99.90
24638;DHT22;12773;50.162;8.548;2023-02-15T06:25:48;4.60;99.90
24638;DHT22;12773;50.162;8.548;2023-02-15T06:28:35;4.70;99.90
24638;DHT22;12773;50.162;8.548;2023-02-15T06:31:23;4.60;99.90
24638;DHT22;12773;50.162;8.548;2023-02-15T06:34:10;4.50;99.90
24638;DHT22;12773;50.162;8.548;2023-02-15T06:36:58;4.60;99.90
24638;DHT22;12773;50.162;8.548;2023-02-15T06:39:46;4.70;99.90
24638;DHT22;12773;50.162;8.548;2023-02-15T06:42:33;4.40;99.90
24638;DHT22;12773;50.162;8.548;2023-02-15T06:45:21;4.40;99.90
24638;DHT22;12773;50.162;8.548;2023-02-15T06:48:08;4.40;99.90
24638;DHT22;12773;50.162;8.548;2023-02-15T06:50:57;4.40;99.90
24638;DHT22;12773;50.162;8.548;2023-02-15T06:53:44;4.30;99.90
24638;DHT22;12773;50.162;8.548;2023-02-15T06:56:32;4.40;99.90
24638;DHT22;12773;50.162;8.548;2023-02-15T06:59:19;4.30;99.90
24638;DHT22;12773;50.162;8.548;2023-02-15T07:02:08;4.30;99.90
24638;DHT22;12773;50.162;8.548;2023-02-15T07:04:55;4.30;99.90
24638;DHT22;12773;50.162;8.548;2023-02-15T07:07:42;4.40;99.90
24638;DHT22;12773;50.162;8.548;2023-02-15T07:10:29;4.40;99.90
24638;DHT22;12773;50.162;8.548;2023-02-15T07:13:16;4.40;99.90
24638;DHT22;12773;50.162;8.548;2023-02-15T07:16:04;4.50;99.90
24638;DHT22;12773;50.162;8.548;2023-02-15T07:18:51;4.60;99.90
24638;DHT22;12773;50.162;8.548;2023-02-15T07:21:39;4.50;99.90
24638;DHT22;12773;50.162;8.548;2023-02-15T07:24:26;4.40;99.90
24638;DHT22;12773;50.162;8.548;2023-02-15T07:27:13;4.20;99.90
24638;DHT22;12773;50.162;8.548;2023-02-15T07:30:01;4.10;99.90
24638;DHT22;12773;50.162;8.548;2023-02-15T07:32:49;4.00;99.90
24638;DHT22;12773;50.162;8.548;2023-02-15T07:35:56;4.00;99.90
24638;DHT22;12773;50.162;8.548;2023-02-15T07:38:48;4.00;99.90
24638;DHT22;12773;50.162;8.548;2023-02-15T07:41:36;4.00;99.90
24638;DHT22;12773;50.162;8.548;2023-02-15T07:44:23;4.00;99.90
24638;DHT22;12773;50.162;8.548;2023-02-15T07:47:11;4.00;99.90
24638;DHT22;12773;50.162;8.548;2023-02-15T07:49:58;3.90;99.90
24638;DHT22;12773;50.162;8.548;2023-02-15T07:52:46;3.90;99.90
24638;DHT22;12773;50.162;8.548;2023-02-15T07:55:33;3.90;99.90
24638;DHT22;12773;50.162;8.548;2023-02-15T07:58:21;3.80;99.90
24638;DHT22;12773;50.162;8.548;2023-02-15T08:01:10;3.80;99.90
24638;DHT22;12773;50.162;8.548;2023-02-15T08:04:01;3.70;99.90
24638;DHT22;12773;50.162;8.548;2023-02-15T08:06:52;3.70;99.90
24638;DHT22;12773;50.162;8.548;2023-02-15T08:09:39;3.70;99.90
24638;DHT22;12773;50.162;8.548;2023-02-15T08:12:27;3.60;99.90
24638;DHT22;12773;50.162;8.548;2023-02-15T08:15:14;3.60;99.90
24638;DHT22;12773;50.162;8.548;2023-02-15T08:18:01;3.60;99.90
24638;DHT22;12773;50.162;8.548;2023-02-15T08:20:49;3.50;99.90
24638;DHT22;12773;50.162;8.548;2023-02-15T08:23:37;3.50;99.90
24638;DHT22;12773;50.162;8.548;2023-02-15T08:26:25;3.30;99.90
24638;DHT22;12773;50.162;8.548;2023-02-15T08:29:15;3.30;99.90
24638;DHT22;12773;50.162;8.548;2023-02-15T08:32:06;3.30;99.90
24638;DHT22;12773;50.162;8.548;2023-02-15T08:34:53;3.40;99.90
24638;DHT22;12773;50.162;8.548;2023-02-15T08:37:40;3.40;99.90
24638;DHT22;12773;50.162;8.548;2023-02-15T08:40:28;3.40;99.90
24638;DHT22;12773;50.162;8.548;2023-02-15T08:43:34;3.40;99.90
24638;DHT22;12773;50.162;8.548;2023-02-15T08:46:25;3.30;99.90
24638;DHT22;12773;50.162;8.548;2023-02-15T08:49:17;3.50;99.90
24638;DHT22;12773;50.162;8.548;2023-02-15T08:52:05;3.40;99.90
24638;DHT22;12773;50.162;8.548;2023-02-15T08:54:53;3.40;99.90
24638;DHT22;12773;50.162;8.548;2023-02-15T08:57:41;3.50;99.90
24638;DHT22;12773;50.162;8.548;2023-02-15T09:00:29;3.50;99.90
24638;DHT22;12773;50.162;8.548;2023-02-15T09:03:17;3.40;99.90
24638;DHT22;12773;50.162;8.548;2023-02-15T09:06:06;3.60;99.90
24638;DHT22;12773;50.162;8.548;2023-02-15T09:08:54;3.70;99.90
24638;DHT22;12773;50.162;8.548;2023-02-15T09:11:43;3.60;99.90
24638;DHT22;12773;50.162;8.548;2023-02-15T09:14:31;3.50;99.90
24638;DHT22;12773;50.162;8.548;2023-02-15T09:17:18;3.70;99.90
24638;DHT22;12773;50.162;8.548;2023-02-15T09:20:09;3.80;99.90
24638;DHT22;12773;50.162;8.548;2023-02-15T09:22:55;3.80;99.90
24638;DHT22;12773;50.162;8.548;2023-02-15T09:25:44;3.80;99.90
24638;DHT22;12773;50.162;8.548;2023-02-15T09:28:31;3.70;99.90
24638;DHT22;12773;50.162;8.548;2023-02-15T09:31:24;3.70;99.90
24638;DHT22;12773;50.162;8.548;2023-02-15T09:34:14;3.60;99.90
24638;DHT22;12773;50.162;8.548;2023-02-15T09:37:05;3.60;99.90
24638;DHT22;12773;50.162;8.548;2023-02-15T09:39:53;3.70;99.90
24638;DHT22;12773;50.162;8.548;2023-02-15T09:42:54;3.80;99.90
24638;DHT22;12773;50.162;8.548;2023-02-15T09:45:46;3.80;99.90
24638;DHT22;12773;50.162;8.548;2023-02-15T09:48:38;3.80;99.90
24638;DHT22;12773;50.162;8.548;2023-02-15T09:51:41;3.70;99.90
24638;DHT22;12773;50.162;8.548;2023-02-15T09:54:32;3.80;99.90
24638;DHT22;12773;50.162;8.548;2023-02-15T09:57:30;4.00;99.90
24638;DHT22;12773;50.162;8.548;2023-02-15T10:00:30;4.10;99.90
24638;DHT22;12773;50.162;8.548;2023-02-15T10:03:51;3.90;99.90
24638;DHT22;12773;50.162;8.548;2023-02-15T10:13:41;3.80;99.90
24638;DHT22;12773;50.162;8.548;2023-02-15T10:16:25;3.80;99.90
24638;DHT22;12773;50.162;8.548;2023-02-15T10:19:29;3.60;99.90
24638;DHT22;12773;50.162;8.548;2023-02-15T10:22:28;3.80;99.90
24638;DHT22;12773;50.162;8.548;2023-02-15T10:25:37;3.70;99.90
24638;DHT22;12773;50.162;8.548;2023-02-15T10:28:49;3.70;99.90
24638;DHT22;12773;50.162;8.548;2023-02-15T10:34:35;3.70;99.90
24638;DHT22;12773;50.162;8.548;2023-02-15T10:37:26;3.80;99.90
24638;DHT22;12773;50.162;8.548;2023-02-15T10:49:17;3.40;99.90
24638;DHT22;12773;50.162;8.548;2023-02-15T10:55:18;3.70;99.90
24638;DHT22;12773;50.162;8.548;2023-02-15T11:01:07;3.70;99.90
24638;DHT22;12773;50.162;8.548;2023-02-15T11:07:43;3.70;99.90
24638;DHT22;12773;50.162;8.548;2023-02-15T11:13:13;3.60;99.90
24638;DHT22;12773;50.162;8.548;2023-02-15T11:16:10;3.60;99.90
24638;DHT22;12773;50.162;8.548;2023-02-15T11:19:03;3.60;99.90
24638;DHT22;12773;50.162;8.548;2023-02-15T11:21:53;3.60;99.90
24638;DHT22;12773;50.162;8.548;2023-02-15T11:24:44;3.60;99.90
24638;DHT22;12773;50.162;8.548;2023-02-15T11:27:35;3.60;99.90
24638;DHT22;12773;50.162;8.548;2023-02-15T11:30:27;3.60;99.90
24638;DHT22;12773;50.162;8.548;2023-02-15T11:33:23;3.70;99.90
24638;DHT22;12773;50.162;8.548;2023-02-15T11:36:16;3.70;99.90
24638;DHT22;12773;50.162;8.548;2023-02-15T11:39:10;3.90;99.90
24638;DHT22;12773;50.162;8.548;2023-02-15T11:42:01;4.00;99.90
24638;DHT22;12773;50.162;8.548;2023-02-15T11:47:51;4.00;99.90
24638;DHT22;12773;50.162;8.548;2023-02-15T11:50:40;3.80;99.90
24638;DHT22;12773;50.162;8.548;2023-02-15T11:53:34;3.80;99.90
24638;DHT22;12773;50.162;8.548;2023-02-15T11:56:24;4.00;99.90
24638;DHT22;12773;50.162;8.548;2023-02-15T11:59:15;4.20;99.90
24638;DHT22;12773;50.162;8.548;2023-02-15T12:02:02;4.30;99.90
24638;DHT22;12773;50.162;8.548;2023-02-15T12:04:56;4.40;99.90
24638;DHT22;12773;50.162;8.548;2023-02-15T12:07:46;4.40;99.90
24638;DHT22;12773;50.162;8.548;2023-02-15T12:10:40;4.30;99.90
24638;DHT22;12773;50.162;8.548;2023-02-15T12:13:27;4.00;99.90
24638;DHT22;12773;50.162;8.548;2023-02-15T12:16:15;3.90;99.90
24638;DHT22;12773;50.162;8.548;2023-02-15T12:19:02;3.80;99.90
24638;DHT22;12773;50.162;8.548;2023-02-15T12:21:51;3.80;99.90
24638;DHT22;12773;50.162;8.548;2023-02-15T12:24:44;3.90;99.90
24638;DHT22;12773;50.162;8.548;2023-02-15T12:27:34;4.00;99.90
24638;DHT22;12773;50.162;8.548;2023-02-15T12:30:39;4.00;99.90
24638;DHT22;12773;50.162;8.548;2023-02-15T12:36:20;4.30;99.90
24638;DHT22;12773;50.162;8.548;2023-02-15T12:42:08;4.40;99.90
24638;DHT22;12773;50.162;8.548;2023-02-15T12:44:59;4.50;99.90
24638;DHT22;12773;50.162;8.548;2023-02-15T12:47:47;4.50;99.90
24638;DHT22;12773;50.162;8.548;2023-02-15T12:50:38;4.50;99.90
24638;DHT22;12773;50.162;8.548;2023-02-15T12:53:35;4.80;99.90
24638;DHT22;12773;50.162;8.548;2023-02-15T12:56:26;4.80;99.90
24638;DHT22;12773;50.162;8.548;2023-02-15T12:59:14;4.80;99.90
24638;DHT22;12773;50.162;8.548;2023-02-15T13:02:05;4.70;99.90
24638;DHT22;12773;50.162;8.548;2023-02-15T13:04:56;4.70;99.90
24638;DHT22;12773;50.162;8.548;2023-02-15T13:07:53;4.70;99.90
24638;DHT22;12773;50.162;8.548;2023-02-15T13:10:54;4.70;99.90
24638;DHT22;12773;50.162;8.548;2023-02-15T13:13:55;4.80;99.90
24638;DHT22;12773;50.162;8.548;2023-02-15T13:16:48;4.80;99.90
24638;DHT22;12773;50.162;8.548;2023-02-15T13:19:48;4.70;99.90
24638;DHT22;12773;50.162;8.548;2023-02-15T13:22:43;4.60;99.90
24638;DHT22;12773;50.162;8.548;2023-02-15T13:25:31;4.60;99.90
24638;DHT22;12773;50.162;8.548;2023-02-15T13:28:23;4.60;99.90
24638;DHT22;12773;50.162;8.548;2023-02-15T13:31:18;4.60;99.90
24638;DHT22;12773;50.162;8.548;2023-02-15T13:34:14;4.70;99.90
24638;DHT22;12773;50.162;8.548;2023-02-15T13:37:13;4.50;99.90
24638;DHT22;12773;50.162;8.548;2023-02-15T13:40:06;4.30;99.90
24638;DHT22;12773;50.162;8.548;2023-02-15T13:42:54;4.50;99.90
24638;DHT22;12773;50.162;8.548;2023-02-15T13:46:03;4.50;99.90
24638;DHT22;12773;50.162;8.548;2023-02-15T13:49:01;4.60;99.90
24638;DHT22;12773;50.162;8.548;2023-02-15T13:52:40;4.70;99.90
24638;DHT22;12773;50.162;8.548;2023-02-15T14:01:31;4.90;99.90
24638;DHT22;12773;50.162;8.548;2023-02-15T14:07:30;4.90;99.90
24638;DHT22;12773;50.162;8.548;2023-02-15T14:16:12;4.90;99.90
24638;DHT22;12773;50.162;8.548;2023-02-15T14:19:03;4.80;99.90
24638;DHT22;12773;50.162;8.548;2023-02-15T14:25:25;5.00;99.90
24638;DHT22;12773;50.162;8.548;2023-02-15T14:28:19;5.10;99.90
24638;DHT22;12773;50.162;8.548;2023-02-15T14:31:07;5.10;99.90
24638;DHT22;12773;50.162;8.548;2023-02-15T14:33:58;5.10;99.90
24638;DHT22;12773;50.162;8.548;2023-02-15T14:36:49;5.00;99.90
24638;DHT22;12773;50.162;8.548;2023-02-15T14:40:00;5.10;99.90
24638;DHT22;12773;50.162;8.548;2023-02-15T14:43:15;5.00;99.90
24638;DHT22;12773;50.162;8.548;2023-02-15T14:46:21;4.90;99.90
24638;DHT22;12773;50.162;8.548;2023-02-15T14:49:23;4.80;99.90
24638;DHT22;12773;50.162;8.548;2023-02-15T14:52:12;4.80;99.90
24638;DHT22;12773;50.162;8.548;2023-02-15T14:55:00;5.10;99.90
24638;DHT22;12773;50.162;8.548;2023-02-15T14:57:58;5.10;99.90
24638;DHT22;12773;50.162;8.548;2023-02-15T15:00:46;5.00;99.90
24638;DHT22;12773;50.162;8.548;2023-02-15T15:03:33;4.90;99.90
24638;DHT22;12773;50.162;8.548;2023-02-15T15:06:31;5.00;99.90
24638;DHT22;12773;50.162;8.548;2023-02-15T15:09:27;4.80;99.90
24638;DHT22;12773;50.162;8.548;2023-02-15T15:18:42;4.60;99.90
24638;DHT22;12773;50.162;8.548;2023-02-15T15:22:01;4.50;99.90
24638;DHT22;12773;50.162;8.548;2023-02-15T15:24:06;4.40;99.90
24638;DHT22;12773;50.162;8.548;2023-02-15T15:30:00;4.50;99.90
24638;DHT22;12773;50.162;8.548;2023-02-15T15:36:11;4.40;99.90
24638;DHT22;12773;50.162;8.548;2023-02-15T15:48:33;4.30;99.90
24638;DHT22;12773;50.162;8.548;2023-02-15T15:51:32;4.30;99.90
24638;DHT22;12773;50.162;8.548;2023-02-15T15:54:24;4.40;99.90
24638;DHT22;12773;50.162;8.548;2023-02-15T15:57:23;4.40;99.90
24638;DHT22;12773;50.162;8.548;2023-02-15T16:03:29;4.50;99.90
24638;DHT22;12773;50.162;8.548;2023-02-15T16:06:37;4.50;99.90
24638;DHT22;12773;50.162;8.548;2023-02-15T16:09:18;4.60;99.90
24638;DHT22;12773;50.162;8.548;2023-02-15T16:12:14;4.60;99.90
24638;DHT22;12773;50.162;8.548;2023-02-15T16:15:14;4.60;99.90
24638;DHT22;12773;50.162;8.548;2023-02-15T16:17:55;4.60;99.90
24638;DHT22;12773;50.162;8.548;2023-02-15T16:20:41;4.60;99.90
24638;DHT22;12773;50.162;8.548;2023-02-15T16:26:58;4.50;99.90
24638;DHT22;12773;50.162;8.548;2023-02-15T16:29:43;4.40;99.90
24638;DHT22;12773;50.162;8.548;2023-02-15T16:32:31;4.40;99.90
24638;DHT22;12773;50.162;8.548;2023-02-15T16:35:21;4.50;99.90
24638;DHT22;12773;50.162;8.548;2023-02-15T16:38:10;4.50;99.90
24638;DHT22;12773;50.162;8.548;2023-02-15T16:40:57;4.50;99.90
24638;DHT22;12773;50.162;8.548;2023-02-15T16:43:49;4.40;99.90
24638;DHT22;12773;50.162;8.548;2023-02-15T16:46:40;4.50;99.90
24638;DHT22;12773;50.162;8.548;2023-02-15T16:49:28;4.60;99.90
24638;DHT22;12773;50.162;8.548;2023-02-15T16:52:21;4.50;99.90
24638;DHT22;12773;50.162;8.548;2023-02-15T16:55:19;4.30;99.90
24638;DHT22;12773;50.162;8.548;2023-02-15T16:58:05;4.40;99.90
24638;DHT22;12773;50.162;8.548;2023-02-15T17:00:58;4.40;99.90
24638;DHT22;12773;50.162;8.548;2023-02-15T17:03:49;4.30;99.90
24638;DHT22;12773;50.162;8.548;2023-02-15T17:06:38;4.10;99.90
24638;DHT22;12773;50.162;8.548;2023-02-15T17:09:26;4.00;99.90
24638;DHT22;12773;50.162;8.548;2023-02-15T17:12:13;4.10;99.90
24638;DHT22;12773;50.162;8.548;2023-02-15T17:15:02;4.20;99.90
24638;DHT22;12773;50.162;8.548;2023-02-15T17:17:49;4.20;99.90
24638;DHT22;12773;50.162;8.548;2023-02-15T17:20:38;4.20;99.90
24638;DHT22;12773;50.162;8.548;2023-02-15T17:23:46;4.40;99.90
24638;DHT22;12773;50.162;8.548;2023-02-15T17:26:27;4.20;99.90
24638;DHT22;12773;50.162;8.548;2023-02-15T17:29:28;4.40;99.90
24638;DHT22;12773;50.162;8.548;2023-02-15T17:32:20;4.40;99.90
24638;DHT22;12773;50.162;8.548;2023-02-15T17:35:18;4.40;99.90
24638;DHT22;12773;50.162;8.548;2023-02-15T17:38:18;4.40;99.90
24638;DHT22;12773;50.162;8.548;2023-02-15T17:41:06;4.30;99.90
24638;DHT22;12773;50.162;8.548;2023-02-15T17:43:55;4.30;99.90
24638;DHT22;12773;50.162;8.548;2023-02-15T17:46:43;4.30;99.90
24638;DHT22;12773;50.162;8.548;2023-02-15T17:49:31;4.40;99.90
24638;DHT22;12773;50.162;8.548;2023-02-15T17:52:20;4.30;99.90
24638;DHT22;12773;50.162;8.548;2023-02-15T17:55:17;4.40;99.90
24638;DHT22;12773;50.162;8.548;2023-02-15T17:58:20;4.50;99.90
24638;DHT22;12773;50.162;8.548;2023-02-15T18:01:12;4.40;99.90
24638;DHT22;12773;50.162;8.548;2023-02-15T18:04:16;4.40;99.90
24638;DHT22;12773;50.162;8.548;2023-02-15T18:07:22;4.40;99.90
24638;DHT22;12773;50.162;8.548;2023-02-15T18:10:27;4.30;99.90
24638;DHT22;12773;50.162;8.548;2023-02-15T18:13:33;4.30;99.90
24638;DHT22;12773;50.162;8.548;2023-02-15T18:16:27;4.40;99.90
24638;DHT22;12773;50.162;8.548;2023-02-15T18:19:26;4.30;99.90
24638;DHT22;12773;50.162;8.548;2023-02-15T18:22:18;4.30;99.90
24638;DHT22;12773;50.162;8.548;2023-02-15T18:25:11;4.20;99.90
24638;DHT22;12773;50.162;8.548;2023-02-15T18:27:57;4.20;99.90
24638;DHT22;12773;50.162;8.548;2023-02-15T18:30:44;4.30;99.90
24638;DHT22;12773;50.162;8.548;2023-02-15T18:33:35;4.30;99.90
24638;DHT22;12773;50.162;8.548;2023-02-15T18:36:29;4.30;99.90
24638;DHT22;12773;50.162;8.548;2023-02-15T18:39:24;4.50;99.90
24638;DHT22;12773;50.162;8.548;2023-02-15T18:42:32;4.50;99.90
24638;DHT22;12773;50.162;8.548;2023-02-15T18:45:21;4.50;99.90
24638;DHT22;12773;50.162;8.548;2023-02-15T18:48:10;4.50;99.90
24638;DHT22;12773;50.162;8.548;2023-02-15T18:51:02;4.50;99.90
24638;DHT22;12773;50.162;8.548;2023-02-15T18:53:51;4.40;99.90
24638;DHT22;12773;50.162;8.548;2023-02-15T18:56:39;4.40;99.90
24638;DHT22;12773;50.162;8.548;2023-02-15T18:59:27;4.40;99.90
24638;DHT22;12773;50.162;8.548;2023-02-15T19:02:17;4.30;99.90
24638;DHT22;12773;50.162;8.548;2023-02-15T19:05:05;4.30;99.90
24638;DHT22;12773;50.162;8.548;2023-02-15T19:07:53;4.30;99.90
24638;DHT22;12773;50.162;8.548;2023-02-15T19:10:40;4.20;99.90
24638;DHT22;12773;50.162;8.548;2023-02-15T19:13:27;4.20;99.90
24638;DHT22;12773;50.162;8.548;2023-02-15T19:16:30;4.10;99.90
24638;DHT22;12773;50.162;8.548;2023-02-15T19:19:19;4.10;99.90
24638;DHT22;12773;50.162;8.548;2023-02-15T19:22:42;4.10;99.90
24638;DHT22;12773;50.162;8.548;2023-02-15T19:25:04;3.90;99.90
24638;DHT22;12773;50.162;8.548;2023-02-15T19:27:52;3.80;99.90
24638;DHT22;12773;50.162;8.548;2023-02-15T19:30:41;4.00;99.90
24638;DHT22;12773;50.162;8.548;2023-02-15T19:33:31;4.00;99.90
24638;DHT22;12773;50.162;8.548;2023-02-15T19:36:18;4.20;99.90
24638;DHT22;12773;50.162;8.548;2023-02-15T19:42:19;4.20;99.90
24638;DHT22;12773;50.162;8.548;2023-02-15T19:45:01;4.20;99.90
24638;DHT22;12773;50.162;8.548;2023-02-15T19:47:48;4.30;99.90
24638;DHT22;12773;50.162;8.548;2023-02-15T19:50:37;4.20;99.90
24638;DHT22;12773;50.162;8.548;2023-02-15T19:53:27;4.20;99.90
24638;DHT22;12773;50.162;8.548;2023-02-15T19:56:20;4.30;99.90